createdAt,value
2022-12-23T13:25:50.281Z,17.86
2022-12-23T13:30:56.856Z,17.86
2022-12-23T13:36:14.927Z,17.89
2022-12-23T13:41:24.189Z,17.87
2022-12-23T13:46:35.938Z,17.90
2022-12-23T13:51:42.674Z,17.83
2022-12-23T13:56:49.690Z,17.83
2022-12-23T14:01:53.337Z,17.90
2022-12-23T14:06:57.175Z,17.91
2022-12-23T14:12:12.651Z,17.86
2022-12-23T14:17:20.953Z,17.86
2022-12-23T14:22:36.839Z,17.86
2022-12-23T14:27:49.309Z,17.88
2022-12-23T14:32:53.942Z,17.92
2022-12-23T14:38:24.794Z,18.03
2022-12-23T14:43:34.169Z,18.05
2022-12-23T14:49:38.358Z,18.04
2022-12-23T14:54:39.208Z,18.03
2022-12-23T14:59:46.791Z,18.02
2022-12-23T15:04:52.208Z,17.96
2022-12-23T15:10:01.079Z,18.03
2022-12-23T15:15:07.819Z,18.00
2022-12-23T15:20:15.191Z,18.07
2022-12-23T15:25:22.766Z,18.02
2022-12-23T15:30:27.934Z,17.98
2022-12-23T15:35:32.645Z,17.95
2022-12-23T15:40:37.817Z,18.06
2022-12-23T15:45:43.310Z,18.09
2022-12-23T15:50:46.258Z,18.13
2022-12-23T15:55:50.208Z,18.10
2022-12-23T16:00:55.828Z,18.06
2022-12-23T16:06:07.918Z,18.09
2022-12-23T16:11:16.108Z,18.11
2022-12-23T16:16:27.883Z,18.07
2022-12-23T16:21:33.245Z,18.09
2022-12-23T16:26:41.190Z,18.04
2022-12-23T16:31:52.144Z,18.05
2022-12-23T16:36:58.569Z,18.14
2022-12-23T16:42:01.306Z,18.25
2022-12-23T16:47:08.358Z,18.26
2022-12-23T16:52:14.183Z,18.29
2022-12-23T16:57:16.909Z,18.28
2022-12-23T17:02:24.413Z,18.31
2022-12-23T17:07:27.685Z,18.30
2022-12-23T17:12:30.416Z,18.27
2022-12-23T17:17:39.438Z,18.20
2022-12-23T17:22:43.937Z,18.23
2022-12-23T17:27:46.591Z,18.22
2022-12-23T17:32:52.530Z,18.28
2022-12-23T17:37:55.457Z,18.31
2022-12-23T17:42:58.184Z,18.26
2022-12-23T17:48:02.233Z,18.19
2022-12-23T17:53:04.955Z,18.24
2022-12-23T17:58:07.677Z,18.41
2022-12-23T18:03:22.429Z,18.45
2022-12-23T18:08:25.794Z,18.50
2022-12-23T18:13:28.557Z,18.48
2022-12-23T18:18:43.473Z,18.42
2022-12-23T18:23:48.825Z,18.43
2022-12-23T18:28:53.918Z,18.41
2022-12-23T18:33:59.534Z,18.46
2022-12-23T18:39:02.206Z,18.42
2022-12-23T18:44:05.141Z,18.47
2022-12-23T18:49:09.192Z,18.40
2022-12-23T18:54:14.417Z,18.38
2022-12-23T18:59:21.372Z,18.42
2022-12-23T19:04:31.350Z,18.39
2022-12-23T19:09:34.053Z,18.41
2022-12-23T19:14:36.704Z,18.40
2022-12-23T19:19:40.803Z,18.32
2022-12-23T19:25:03.876Z,18.40
2022-12-23T19:30:07.857Z,18.34
2022-12-23T19:35:13.460Z,18.41
2022-12-23T19:40:16.809Z,18.51
2022-12-23T19:45:19.654Z,18.63
2022-12-23T19:50:23.787Z,18.61
2022-12-23T19:55:26.444Z,18.64
2022-12-23T20:00:29.223Z,18.62
2022-12-23T20:05:33.278Z,18.60
2022-12-23T20:10:35.977Z,18.59
2022-12-23T20:15:38.751Z,18.54
2022-12-23T20:20:45.803Z,18.43
2022-12-23T20:25:48.541Z,18.49
2022-12-23T20:30:59.970Z,18.51
2022-12-23T20:36:04.255Z,18.50
2022-12-23T20:41:07.029Z,18.47
2022-12-23T20:46:12.035Z,18.35
2022-12-23T20:51:18.051Z,18.47
2022-12-23T20:56:22.019Z,18.48
2022-12-23T21:01:27.327Z,18.55
2022-12-23T21:06:32.281Z,18.54
2022-12-23T21:11:37.710Z,18.55
2022-12-23T21:16:41.224Z,18.56
2022-12-23T21:21:45.804Z,18.57
2022-12-23T21:26:56.478Z,18.54
2022-12-23T21:32:00.455Z,18.52
2022-12-23T21:37:04.719Z,18.52
2022-12-23T21:42:07.455Z,18.61
2022-12-23T21:47:10.177Z,18.62
2022-12-23T21:52:14.371Z,18.62
2022-12-23T21:57:17.036Z,18.61
2022-12-23T22:02:19.738Z,18.56
2022-12-23T22:07:23.901Z,18.58
2022-12-23T22:12:26.598Z,18.52
2022-12-23T22:17:29.203Z,18.51
2022-12-23T22:22:33.180Z,18.49
2022-12-23T22:27:35.841Z,18.51
2022-12-23T22:32:42.392Z,18.60
2022-12-23T22:37:46.744Z,18.62
2022-12-23T22:42:49.366Z,18.67
2022-12-23T22:47:52.036Z,18.66
2022-12-23T22:52:56.408Z,18.63
2022-12-23T22:57:59.040Z,18.58
2022-12-23T23:03:01.768Z,18.62
2022-12-23T23:08:06.256Z,18.58
2022-12-23T23:13:08.984Z,18.52
2022-12-23T23:18:11.626Z,18.52
2022-12-23T23:23:15.768Z,18.47
2022-12-23T23:28:18.699Z,18.32
2022-12-23T23:33:21.410Z,18.30
2022-12-23T23:38:26.172Z,18.25
2022-12-23T23:43:28.826Z,18.24
2022-12-23T23:48:31.466Z,18.20
2022-12-23T23:53:35.444Z,18.11
2022-12-23T23:58:38.241Z,18.07
